sensor_id;sensor_type;location;lat;lon;timestamp;temperature;humidity
14517;DHT22;7344;50.864;4.362;2022-11-15T00:00:53;12.70;99.90
14517;DHT22;7344;50.864;4.362;2022-11-15T00:03:25;12.70;99.90
14517;DHT22;7344;50.864;4.362;2022-11-15T00:05:51;12.80;99.90
14517;DHT22;7344;50.864;4.362;2022-11-15T00:08:17;12.80;99.90
14517;DHT22;7344;50.864;4.362;2022-11-15T00:10:53;12.80;99.90
14517;DHT22;7344;50.864;4.362;2022-11-15T00:13:18;12.80;99.90
14517;DHT22;7344;50.864;4.362;2022-11-15T00:15:44;12.80;99.90
14517;DHT22;7344;50.864;4.362;2022-11-15T00:18:13;12.70;99.90
14517;DHT22;7344;50.864;4.362;2022-11-15T00:20:39;12.70;99.90
14517;DHT22;7344;50.864;4.362;2022-11-15T00:23:14;12.70;99.90
14517;DHT22;7344;50.864;4.362;2022-11-15T00:25:42;12.70;99.90
14517;DHT22;7344;50.864;4.362;2022-11-15T00:28:07;12.70;99.90
14517;DHT22;7344;50.864;4.362;2022-11-15T00:30:33;12.70;99.90
14517;DHT22;7344;50.864;4.362;2022-11-15T00:33:04;12.70;99.90
14517;DHT22;7344;50.864;4.362;2022-11-15T00:35:34;12.80;99.90
14517;DHT22;7344;50.864;4.362;2022-11-15T00:38:00;12.80;99.90
14517;DHT22;7344;50.864;4.362;2022-11-15T00:40:29;12.80;99.90
14517;DHT22;7344;50.864;4.362;2022-11-15T00:42:55;12.90;99.90
14517;DHT22;7344;50.864;4.362;2022-11-15T00:45:21;12.80;99.90
14517;DHT22;7344;50.864;4.362;2022-11-15T00:47:47;12.80;99.90
14517;DHT22;7344;50.864;4.362;2022-11-15T00:50:13;12.90;99.90
14517;DHT22;7344;50.864;4.362;2022-11-15T00:52:38;12.90;99.90
14517;DHT22;7344;50.864;4.362;2022-11-15T00:55:08;12.90;99.90
14517;DHT22;7344;50.864;4.362;2022-11-15T00:57:36;12.90;99.90
14517;DHT22;7344;50.864;4.362;2022-11-15T01:00:02;12.90;99.90
14517;DHT22;7344;50.864;4.362;2022-11-15T01:02:28;13.00;99.90
14517;DHT22;7344;50.864;4.362;2022-11-15T01:04:54;13.00;99.90
14517;DHT22;7344;50.864;4.362;2022-11-15T01:07:19;12.90;99.90
14517;DHT22;7344;50.864;4.362;2022-11-15T01:09:47;12.90;99.90
14517;DHT22;7344;50.864;4.362;2022-11-15T01:12:13;12.80;99.90
14517;DHT22;7344;50.864;4.362;2022-11-15T01:14:38;13.00;99.90
14517;DHT22;7344;50.864;4.362;2022-11-15T01:17:04;13.00;99.90
14517;DHT22;7344;50.864;4.362;2022-11-15T01:19:30;13.00;99.90
14517;DHT22;7344;50.864;4.362;2022-11-15T01:21:55;13.00;99.90
14517;DHT22;7344;50.864;4.362;2022-11-15T01:24:21;13.00;99.90
14517;DHT22;7344;50.864;4.362;2022-11-15T01:26:46;13.00;99.90
14517;DHT22;7344;50.864;4.362;2022-11-15T01:29:15;13.00;99.90
14517;DHT22;7344;50.864;4.362;2022-11-15T01:31:40;13.00;99.90
14517;DHT22;7344;50.864;4.362;2022-11-15T01:34:06;13.00;99.90
14517;DHT22;7344;50.864;4.362;2022-11-15T01:36:31;13.00;99.90
14517;DHT22;7344;50.864;4.362;2022-11-15T01:39:00;13.00;99.90
14517;DHT22;7344;50.864;4.362;2022-11-15T01:41:28;13.10;99.90
14517;DHT22;7344;50.864;4.362;2022-11-15T01:43:57;13.10;99.90
14517;DHT22;7344;50.864;4.362;2022-11-15T01:46:34;13.00;99.90
14517;DHT22;7344;50.864;4.362;2022-11-15T01:49:04;13.00;99.90
14517;DHT22;7344;50.864;4.362;2022-11-15T01:51:33;13.00;99.90
14517;DHT22;7344;50.864;4.362;2022-11-15T01:54:08;12.90;99.90
14517;DHT22;7344;50.864;4.362;2022-11-15T01:56:45;12.90;99.90
14517;DHT22;7344;50.864;4.362;2022-11-15T01:59:11;12.90;99.90
14517;DHT22;7344;50.864;4.362;2022-11-15T02:01:38;12.90;99.90
14517;DHT22;7344;50.864;4.362;2022-11-15T02:04:19;12.80;99.90
14517;DHT22;7344;50.864;4.362;2022-11-15T02:06:47;12.90;99.90
14517;DHT22;7344;50.864;4.362;2022-11-15T02:09:17;12.80;99.90
14517;DHT22;7344;50.864;4.362;2022-11-15T02:11:43;12.80;99.90
14517;DHT22;7344;50.864;4.362;2022-11-15T02:14:11;12.80;99.90
14517;DHT22;7344;50.864;4.362;2022-11-15T02:36:47;12.70;99.90
14517;DHT22;7344;50.864;4.362;2022-11-15T02:39:38;12.70;99.90
14517;DHT22;7344;50.864;4.362;2022-11-15T02:45:09;12.80;99.90
14517;DHT22;7344;50.864;4.362;2022-11-15T02:47:43;12.70;99.90
14517;DHT22;7344;50.864;4.362;2022-11-15T02:50:13;12.70;99.90
14517;DHT22;7344;50.864;4.362;2022-11-15T02:52:44;12.70;99.90
14517;DHT22;7344;50.864;4.362;2022-11-15T02:55:34;12.70;99.90
14517;DHT22;7344;50.864;4.362;2022-11-15T03:01:55;12.60;99.90
14517;DHT22;7344;50.864;4.362;2022-11-15T03:04:11;12.60;99.90
14517;DHT22;7344;50.864;4.362;2022-11-15T03:06:48;12.60;99.90
14517;DHT22;7344;50.864;4.362;2022-11-15T03:09:55;12.60;99.90
14517;DHT22;7344;50.864;4.362;2022-11-15T03:12:41;12.70;99.90
14517;DHT22;7344;50.864;4.362;2022-11-15T03:15:21;12.70;99.90
14517;DHT22;7344;50.864;4.362;2022-11-15T03:18:02;12.50;99.90
14517;DHT22;7344;50.864;4.362;2022-11-15T03:20:30;12.50;99.90
14517;DHT22;7344;50.864;4.362;2022-11-15T03:23:00;12.60;99.90
14517;DHT22;7344;50.864;4.362;2022-11-15T03:25:29;12.50;99.90
14517;DHT22;7344;50.864;4.362;2022-11-15T03:27:59;12.40;99.90
14517;DHT22;7344;50.864;4.362;2022-11-15T03:30:27;12.30;99.90
14517;DHT22;7344;50.864;4.362;2022-11-15T03:32:58;12.30;99.90
14517;DHT22;7344;50.864;4.362;2022-11-15T03:35:27;12.40;99.90
14517;DHT22;7344;50.864;4.362;2022-11-15T03:40:57;12.40;99.90
14517;DHT22;7344;50.864;4.362;2022-11-15T03:43:33;12.40;99.90
14517;DHT22;7344;50.864;4.362;2022-11-15T03:46:32;12.30;99.90
14517;DHT22;7344;50.864;4.362;2022-11-15T03:49:10;12.30;99.90
14517;DHT22;7344;50.864;4.362;2022-11-15T03:51:37;12.30;99.90
14517;DHT22;7344;50.864;4.362;2022-11-15T03:54:06;12.30;99.90
14517;DHT22;7344;50.864;4.362;2022-11-15T03:56:32;12.40;99.90
14517;DHT22;7344;50.864;4.362;2022-11-15T03:58:58;12.40;99.90
14517;DHT22;7344;50.864;4.362;2022-11-15T04:01:23;12.40;99.90
14517;DHT22;7344;50.864;4.362;2022-11-15T04:03:49;12.40;99.90
14517;DHT22;7344;50.864;4.362;2022-11-15T04:06:15;12.40;99.90
14517;DHT22;7344;50.864;4.362;2022-11-15T04:08:40;12.30;99.90
14517;DHT22;7344;50.864;4.362;2022-11-15T04:11:06;12.30;99.90
14517;DHT22;7344;50.864;4.362;2022-11-15T04:13:31;12.30;99.90
14517;DHT22;7344;50.864;4.362;2022-11-15T04:15:57;12.40;99.90
14517;DHT22;7344;50.864;4.362;2022-11-15T04:18:28;12.30;99.90
14517;DHT22;7344;50.864;4.362;2022-11-15T04:20:57;12.30;99.90
14517;DHT22;7344;50.864;4.362;2022-11-15T04:23:41;12.30;99.90
14517;DHT22;7344;50.864;4.362;2022-11-15T04:26:25;12.40;99.90
14517;DHT22;7344;50.864;4.362;2022-11-15T04:28:51;12.30;99.90
14517;DHT22;7344;50.864;4.362;2022-11-15T04:31:35;12.30;99.90
14517;DHT22;7344;50.864;4.362;2022-11-15T04:34:01;12.20;99.90
14517;DHT22;7344;50.864;4.362;2022-11-15T04:36:26;12.20;99.90
14517;DHT22;7344;50.864;4.362;2022-11-15T04:39:10;12.20;99.90
14517;DHT22;7344;50.864;4.362;2022-11-15T04:41:36;12.30;99.90
14517;DHT22;7344;50.864;4.362;2022-11-15T04:44:02;12.20;99.90
14517;DHT22;7344;50.864;4.362;2022-11-15T04:46:30;12.20;99.90
14517;DHT22;7344;50.864;4.362;2022-11-15T04:48:55;12.10;99.90
14517;DHT22;7344;50.864;4.362;2022-11-15T04:51:21;12.10;99.90
14517;DHT22;7344;50.864;4.362;2022-11-15T04:53:49;12.00;99.90
14517;DHT22;7344;50.864;4.362;2022-11-15T04:56:15;12.10;99.90
14517;DHT22;7344;50.864;4.362;2022-11-15T04:58:41;12.00;99.90
14517;DHT22;7344;50.864;4.362;2022-11-15T05:01:10;12.00;99.90
14517;DHT22;7344;50.864;4.362;2022-11-15T05:03:36;12.00;99.90
14517;DHT22;7344;50.864;4.362;2022-11-15T05:06:20;12.00;99.90
14517;DHT22;7344;50.864;4.362;2022-11-15T05:08:46;11.90;99.90
14517;DHT22;7344;50.864;4.362;2022-11-15T05:11:11;11.90;99.90
14517;DHT22;7344;50.864;4.362;2022-11-15T05:13:37;11.90;99.90
14517;DHT22;7344;50.864;4.362;2022-11-15T05:16:06;11.90;99.90
14517;DHT22;7344;50.864;4.362;2022-11-15T05:18:53;11.80;99.90
14517;DHT22;7344;50.864;4.362;2022-11-15T05:21:17;11.70;99.90
14517;DHT22;7344;50.864;4.362;2022-11-15T05:23:43;11.70;99.90
14517;DHT22;7344;50.864;4.362;2022-11-15T05:26:12;11.70;99.90
14517;DHT22;7344;50.864;4.362;2022-11-15T05:28:40;11.60;99.90
14517;DHT22;7344;50.864;4.362;2022-11-15T05:31:08;11.50;99.90
14517;DHT22;7344;50.864;4.362;2022-11-15T05:33:35;11.50;99.90
14517;DHT22;7344;50.864;4.362;2022-11-15T05:38:49;11.50;99.90
14517;DHT22;7344;50.864;4.362;2022-11-15T05:41:17;11.40;99.90
14517;DHT22;7344;50.864;4.362;2022-11-15T05:43:43;11.40;99.90
14517;DHT22;7344;50.864;4.362;2022-11-15T05:46:10;11.40;99.90
14517;DHT22;7344;50.864;4.362;2022-11-15T05:48:36;11.30;99.90
14517;DHT22;7344;50.864;4.362;2022-11-15T05:51:03;11.30;99.90
14517;DHT22;7344;50.864;4.362;2022-11-15T05:53:30;11.30;99.90
14517;DHT22;7344;50.864;4.362;2022-11-15T05:55:56;11.30;99.90
14517;DHT22;7344;50.864;4.362;2022-11-15T05:58:25;11.20;99.90
14517;DHT22;7344;50.864;4.362;2022-11-15T06:00:50;11.10;99.90
14517;DHT22;7344;50.864;4.362;2022-11-15T06:03:16;11.10;99.90
14517;DHT22;7344;50.864;4.362;2022-11-15T06:05:42;11.20;99.90
14517;DHT22;7344;50.864;4.362;2022-11-15T06:08:07;11.20;99.90
14517;DHT22;7344;50.864;4.362;2022-11-15T06:10:33;11.20;99.90
14517;DHT22;7344;50.864;4.362;2022-11-15T06:12:59;11.20;99.90
14517;DHT22;7344;50.864;4.362;2022-11-15T06:15:25;11.10;99.90
14517;DHT22;7344;50.864;4.362;2022-11-15T06:17:51;11.10;99.90
14517;DHT22;7344;50.864;4.362;2022-11-15T06:20:17;11.10;99.90
14517;DHT22;7344;50.864;4.362;2022-11-15T06:22:45;11.10;99.90
14517;DHT22;7344;50.864;4.362;2022-11-15T06:25:11;11.00;99.90
14517;DHT22;7344;50.864;4.362;2022-11-15T06:27:36;11.00;99.90
14517;DHT22;7344;50.864;4.362;2022-11-15T06:30:02;10.90;99.90
14517;DHT22;7344;50.864;4.362;2022-11-15T06:32:31;10.90;99.90
14517;DHT22;7344;50.864;4.362;2022-11-15T06:34:56;10.90;99.90
14517;DHT22;7344;50.864;4.362;2022-11-15T06:37:22;10.80;99.90
14517;DHT22;7344;50.864;4.362;2022-11-15T06:39:47;10.80;99.90
14517;DHT22;7344;50.864;4.362;2022-11-15T06:42:16;10.80;99.90
14517;DHT22;7344;50.864;4.362;2022-11-15T06:44:41;10.70;99.90
14517;DHT22;7344;50.864;4.362;2022-11-15T06:47:07;10.70;99.90
14517;DHT22;7344;50.864;4.362;2022-11-15T06:49:32;10.70;99.90
14517;DHT22;7344;50.864;4.362;2022-11-15T06:51:58;10.70;99.90
14517;DHT22;7344;50.864;4.362;2022-11-15T06:54:23;10.70;99.90
14517;DHT22;7344;50.864;4.362;2022-11-15T06:56:49;10.70;99.90
14517;DHT22;7344;50.864;4.362;2022-11-15T06:59:14;10.70;99.90
14517;DHT22;7344;50.864;4.362;2022-11-15T07:01:40;10.70;99.90
14517;DHT22;7344;50.864;4.362;2022-11-15T07:04:06;10.60;99.90
14517;DHT22;7344;50.864;4.362;2022-11-15T07:06:31;10.60;99.90
14517;DHT22;7344;50.864;4.362;2022-11-15T07:08:57;10.60;99.90
14517;DHT22;7344;50.864;4.362;2022-11-15T07:11:22;10.60;99.90
14517;DHT22;7344;50.864;4.362;2022-11-15T07:13:48;10.70;99.90
14517;DHT22;7344;50.864;4.362;2022-11-15T07:16:13;10.70;99.90
14517;DHT22;7344;50.864;4.362;2022-11-15T07:18:42;10.70;99.90
14517;DHT22;7344;50.864;4.362;2022-11-15T07:21:09;10.80;99.90
14517;DHT22;7344;50.864;4.362;2022-11-15T07:23:39;10.80;99.90
14517;DHT22;7344;50.864;4.362;2022-11-15T07:26:06;10.80;99.90
14517;DHT22;7344;50.864;4.362;2022-11-15T07:28:32;10.80;99.90
14517;DHT22;7344;50.864;4.362;2022-11-15T07:30:58;10.80;99.90
14517;DHT22;7344;50.864;4.362;2022-11-15T07:33:25;10.90;99.90
14517;DHT22;7344;50.864;4.362;2022-11-15T07:35:51;10.90;99.90
14517;DHT22;7344;50.864;4.362;2022-11-15T07:38:17;11.10;99.90
14517;DHT22;7344;50.864;4.362;2022-11-15T07:40:46;11.10;99.90
14517;DHT22;7344;50.864;4.362;2022-11-15T07:43:15;11.30;99.90
14517;DHT22;7344;50.864;4.362;2022-11-15T07:45:44;11.30;99.90
14517;DHT22;7344;50.864;4.362;2022-11-15T07:48:16;11.30;99.90
14517;DHT22;7344;50.864;4.362;2022-11-15T07:50:42;11.50;99.90
14517;DHT22;7344;50.864;4.362;2022-11-15T07:53:09;11.80;99.90
14517;DHT22;7344;50.864;4.362;2022-11-15T07:55:34;11.80;99.90
14517;DHT22;7344;50.864;4.362;2022-11-15T07:58:02;12.10;99.90
14517;DHT22;7344;50.864;4.362;2022-11-15T08:00:28;12.20;99.90
14517;DHT22;7344;50.864;4.362;2022-11-15T08:03:08;12.50;99.90
14517;DHT22;7344;50.864;4.362;2022-11-15T08:05:34;12.80;99.90
14517;DHT22;7344;50.864;4.362;2022-11-15T08:08:00;13.00;99.90
14517;DHT22;7344;50.864;4.362;2022-11-15T08:10:27;13.60;99.90
14517;DHT22;7344;50.864;4.362;2022-11-15T08:13:00;14.00;99.90
14517;DHT22;7344;50.864;4.362;2022-11-15T08:15:26;14.10;99.90
14517;DHT22;7344;50.864;4.362;2022-11-15T08:18:01;14.40;99.90
14517;DHT22;7344;50.864;4.362;2022-11-15T08:20:29;14.70;99.90
14517;DHT22;7344;50.864;4.362;2022-11-15T08:22:59;15.00;99.90
14517;DHT22;7344;50.864;4.362;2022-11-15T08:25:25;14.50;99.90
14517;DHT22;7344;50.864;4.362;2022-11-15T08:27:59;13.80;99.90
14517;DHT22;7344;50.864;4.362;2022-11-15T08:30:25;13.40;99.90
14517;DHT22;7344;50.864;4.362;2022-11-15T08:32:56;13.20;99.90
14517;DHT22;7344;50.864;4.362;2022-11-15T08:35:22;12.80;99.90
14517;DHT22;7344;50.864;4.362;2022-11-15T08:37:49;12.60;99.90
14517;DHT22;7344;50.864;4.362;2022-11-15T08:40:15;12.70;99.90
14517;DHT22;7344;50.864;4.362;2022-11-15T08:42:41;12.90;99.90
14517;DHT22;7344;50.864;4.362;2022-11-15T08:45:07;13.10;99.90
14517;DHT22;7344;50.864;4.362;2022-11-15T08:47:34;13.20;99.90
14517;DHT22;7344;50.864;4.362;2022-11-15T08:50:02;13.30;99.90
14517;DHT22;7344;50.864;4.362;2022-11-15T08:52:28;13.30;99.90
14517;DHT22;7344;50.864;4.362;2022-11-15T08:54:57;13.40;99.90
14517;DHT22;7344;50.864;4.362;2022-11-15T08:57:28;13.20;99.90
14517;DHT22;7344;50.864;4.362;2022-11-15T08:59:55;13.30;99.90
14517;DHT22;7344;50.864;4.362;2022-11-15T09:02:21;13.50;99.90
14517;DHT22;7344;50.864;4.362;2022-11-15T09:04:47;13.60;99.90
14517;DHT22;7344;50.864;4.362;2022-11-15T09:07:14;14.50;99.90
14517;DHT22;7344;50.864;4.362;2022-11-15T09:09:40;14.70;99.90
14517;DHT22;7344;50.864;4.362;2022-11-15T09:12:07;15.10;99.90
14517;DHT22;7344;50.864;4.362;2022-11-15T09:14:38;14.90;99.90
14517;DHT22;7344;50.864;4.362;2022-11-15T09:17:08;14.50;99.90
14517;DHT22;7344;50.864;4.362;2022-11-15T09:19:34;14.00;99.90
14517;DHT22;7344;50.864;4.362;2022-11-15T09:21:59;13.90;99.90
14517;DHT22;7344;50.864;4.362;2022-11-15T09:24:25;13.40;99.90
14517;DHT22;7344;50.864;4.362;2022-11-15T09:26:51;13.70;99.90
14517;DHT22;7344;50.864;4.362;2022-11-15T09:29:17;14.40;99.90
14517;DHT22;7344;50.864;4.362;2022-11-15T09:31:43;15.00;99.90
14517;DHT22;7344;50.864;4.362;2022-11-15T09:34:09;15.20;99.90
14517;DHT22;7344;50.864;4.362;2022-11-15T09:36:34;15.00;99.90
14517;DHT22;7344;50.864;4.362;2022-11-15T09:39:09;15.90;99.90
14517;DHT22;7344;50.864;4.362;2022-11-15T09:50:38;16.60;99.90
14517;DHT22;7344;50.864;4.362;2022-11-15T09:53:34;16.10;99.90
14517;DHT22;7344;50.864;4.362;2022-11-15T09:56:15;15.90;99.90
14517;DHT22;7344;50.864;4.362;2022-11-15T10:04:32;15.80;99.90
14517;DHT22;7344;50.864;4.362;2022-11-15T10:07:46;15.50;99.90
14517;DHT22;7344;50.864;4.362;2022-11-15T10:10:13;15.20;99.90
14517;DHT22;7344;50.864;4.362;2022-11-15T10:12:42;15.10;99.90
14517;DHT22;7344;50.864;4.362;2022-11-15T10:15:14;14.90;99.90
14517;DHT22;7344;50.864;4.362;2022-11-15T10:23:15;14.80;99.90
14517;DHT22;7344;50.864;4.362;2022-11-15T10:25:41;15.00;99.90
14517;DHT22;7344;50.864;4.362;2022-11-15T10:28:27;15.30;99.90
14517;DHT22;7344;50.864;4.362;2022-11-15T10:30:56;15.00;99.90
14517;DHT22;7344;50.864;4.362;2022-11-15T10:46:30;14.30;99.90
14517;DHT22;7344;50.864;4.362;2022-11-15T10:51:54;14.00;99.90
14517;DHT22;7344;50.864;4.362;2022-11-15T10:54:44;14.00;99.90
14517;DHT22;7344;50.864;4.362;2022-11-15T10:57:33;14.00;99.90
14517;DHT22;7344;50.864;4.362;2022-11-15T11:00:05;14.00;99.90
14517;DHT22;7344;50.864;4.362;2022-11-15T11:05:01;13.60;99.90
14517;DHT22;7344;50.864;4.362;2022-11-15T11:07:33;13.80;99.90
14517;DHT22;7344;50.864;4.362;2022-11-15T11:10:20;13.90;99.90
14517;DHT22;7344;50.864;4.362;2022-11-15T11:12:46;14.10;99.90
14517;DHT22;7344;50.864;4.362;2022-11-15T11:15:16;14.10;99.90
14517;DHT22;7344;50.864;4.362;2022-11-15T11:20:53;14.00;99.90
14517;DHT22;7344;50.864;4.362;2022-11-15T11:40:27;14.30;99.90
14517;DHT22;7344;50.864;4.362;2022-11-15T11:46:14;14.20;99.90
14517;DHT22;7344;50.864;4.362;2022-11-15T11:48:44;14.20;99.90
14517;DHT22;7344;50.864;4.362;2022-11-15T11:51:18;14.10;99.90
14517;DHT22;7344;50.864;4.362;2022-11-15T11:56:50;14.00;99.90
14517;DHT22;7344;50.864;4.362;2022-11-15T11:59:47;14.10;99.90
14517;DHT22;7344;50.864;4.362;2022-11-15T12:04:51;14.20;99.90
14517;DHT22;7344;50.864;4.362;2022-11-15T12:07:30;14.10;99.90
14517;DHT22;7344;50.864;4.362;2022-11-15T12:10:15;14.10;99.90
14517;DHT22;7344;50.864;4.362;2022-11-15T12:13:07;14.10;99.90
14517;DHT22;7344;50.864;4.362;2022-11-15T12:18:13;13.90;99.90
14517;DHT22;7344;50.864;4.362;2022-11-15T12:20:49;13.90;99.90
14517;DHT22;7344;50.864;4.362;2022-11-15T12:23:39;13.90;99.90
14517;DHT22;7344;50.864;4.362;2022-11-15T12:26:17;14.10;99.90
14517;DHT22;7344;50.864;4.362;2022-11-15T12:28:59;14.00;99.90
14517;DHT22;7344;50.864;4.362;2022-11-15T12:33:58;13.90;99.90
14517;DHT22;7344;50.864;4.362;2022-11-15T12:39:09;13.90;99.90
14517;DHT22;7344;50.864;4.362;2022-11-15T12:41:37;14.00;99.90
14517;DHT22;7344;50.864;4.362;2022-11-15T12:44:04;14.00;99.90
14517;DHT22;7344;50.864;4.362;2022-11-15T12:49:41;14.10;99.90
14517;DHT22;7344;50.864;4.362;2022-11-15T12:59:50;14.20;99.90
14517;DHT22;7344;50.864;4.362;2022-11-15T13:02:46;14.30;99.90
14517;DHT22;7344;50.864;4.362;2022-11-15T13:17:50;14.40;99.90
14517;DHT22;7344;50.864;4.362;2022-11-15T13:28:07;14.30;99.90
14517;DHT22;7344;50.864;4.362;2022-11-15T13:30:35;14.20;99.90
14517;DHT22;7344;50.864;4.362;2022-11-15T13:33:14;14.20;99.90
14517;DHT22;7344;50.864;4.362;2022-11-15T13:35:42;14.20;99.90
14517;DHT22;7344;50.864;4.362;2022-11-15T13:38:27;14.20;99.90
14517;DHT22;7344;50.864;4.362;2022-11-15T13:40:53;14.20;99.90
14517;DHT22;7344;50.864;4.362;2022-11-15T13:48:44;14.20;99.90
14517;DHT22;7344;50.864;4.362;2022-11-15T13:56:42;14.30;99.90
14517;DHT22;7344;50.864;4.362;2022-11-15T13:59:33;14.20;99.90
14517;DHT22;7344;50.864;4.362;2022-11-15T14:01:58;14.30;99.90
14517;DHT22;7344;50.864;4.362;2022-11-15T14:04:27;14.20;99.90
14517;DHT22;7344;50.864;4.362;2022-11-15T14:07:01;14.10;99.90
14517;DHT22;7344;50.864;4.362;2022-11-15T14:11:59;14.10;99.90
14517;DHT22;7344;50.864;4.362;2022-11-15T14:14:27;14.10;99.90
14517;DHT22;7344;50.864;4.362;2022-11-15T14:16:57;14.20;99.90
14517;DHT22;7344;50.864;4.362;2022-11-15T14:22:09;14.20;99.90
14517;DHT22;7344;50.864;4.362;2022-11-15T14:24:35;14.10;99.90
14517;DHT22;7344;50.864;4.362;2022-11-15T14:29:47;14.10;99.90
14517;DHT22;7344;50.864;4.362;2022-11-15T14:32:18;14.10;99.90
14517;DHT22;7344;50.864;4.362;2022-11-15T14:34:45;14.00;99.90
14517;DHT22;7344;50.864;4.362;2022-11-15T14:37:26;14.00;99.90
14517;DHT22;7344;50.864;4.362;2022-11-15T14:39:52;13.90;99.90
14517;DHT22;7344;50.864;4.362;2022-11-15T14:42:18;13.80;99.90
14517;DHT22;7344;50.864;4.362;2022-11-15T14:44:44;13.70;99.90
14517;DHT22;7344;50.864;4.362;2022-11-15T14:47:10;13.60;99.90
14517;DHT22;7344;50.864;4.362;2022-11-15T14:49:36;13.60;99.90
14517;DHT22;7344;50.864;4.362;2022-11-15T14:54:45;13.60;99.90
14517;DHT22;7344;50.864;4.362;2022-11-15T14:57:11;13.50;99.90
14517;DHT22;7344;50.864;4.362;2022-11-15T14:59:36;13.50;99.90
14517;DHT22;7344;50.864;4.362;2022-11-15T15:02:17;13.40;99.90
14517;DHT22;7344;50.864;4.362;2022-11-15T15:04:43;13.40;99.90
14517;DHT22;7344;50.864;4.362;2022-11-15T15:07:09;13.40;99.90
14517;DHT22;7344;50.864;4.362;2022-11-15T15:09:34;13.40;99.90
14517;DHT22;7344;50.864;4.362;2022-11-15T15:12:03;13.30;99.90
14517;DHT22;7344;50.864;4.362;2022-11-15T15:14:29;13.30;99.90
14517;DHT22;7344;50.864;4.362;2022-11-15T15:16:54;13.30;99.90
14517;DHT22;7344;50.864;4.362;2022-11-15T15:19:20;13.20;99.90
14517;DHT22;7344;50.864;4.362;2022-11-15T15:21:45;13.20;99.90
14517;DHT22;7344;50.864;4.362;2022-11-15T15:24:20;13.20;99.90
14517;DHT22;7344;50.864;4.362;2022-11-15T15:26:46;13.20;99.90
14517;DHT22;7344;50.864;4.362;2022-11-15T15:29:11;13.10;99.90
14517;DHT22;7344;50.864;4.362;2022-11-15T15:31:37;13.10;99.90
14517;DHT22;7344;50.864;4.362;2022-11-15T15:34:03;13.00;99.90
14517;DHT22;7344;50.864;4.362;2022-11-15T15:36:29;13.00;99.90
14517;DHT22;7344;50.864;4.362;2022-11-15T15:38:55;13.00;99.90
14517;DHT22;7344;50.864;4.362;2022-11-15T15:41:20;13.00;99.90
14517;DHT22;7344;50.864;4.362;2022-11-15T15:43:46;12.90;99.90
14517;DHT22;7344;50.864;4.362;2022-11-15T15:46:17;12.90;99.90
14517;DHT22;7344;50.864;4.362;2022-11-15T15:48:46;12.90;99.90
14517;DHT22;7344;50.864;4.362;2022-11-15T15:51:12;12.90;99.90
14517;DHT22;7344;50.864;4.362;2022-11-15T15:53:38;12.90;99.90
14517;DHT22;7344;50.864;4.362;2022-11-15T15:56:04;12.80;99.90
14517;DHT22;7344;50.864;4.362;2022-11-15T15:58:30;12.80;99.90
14517;DHT22;7344;50.864;4.362;2022-11-15T16:00:57;12.80;99.90
14517;DHT22;7344;50.864;4.362;2022-11-15T16:03:22;12.80;99.90
14517;DHT22;7344;50.864;4.362;2022-11-15T16:05:50;12.80;99.90
14517;DHT22;7344;50.864;4.362;2022-11-15T16:08:20;12.80;99.90
14517;DHT22;7344;50.864;4.362;2022-11-15T16:10:49;12.80;99.90
14517;DHT22;7344;50.864;4.362;2022-11-15T16:13:15;12.80;99.90
14517;DHT22;7344;50.864;4.362;2022-11-15T16:15:42;12.80;99.90
14517;DHT22;7344;50.864;4.362;2022-11-15T16:18:16;12.80;99.90
14517;DHT22;7344;50.864;4.362;2022-11-15T16:20:44;12.70;99.90
14517;DHT22;7344;50.864;4.362;2022-11-15T16:23:13;12.70;99.90
14517;DHT22;7344;50.864;4.362;2022-11-15T16:25:49;12.70;99.90
14517;DHT22;7344;50.864;4.362;2022-11-15T16:28:31;12.70;99.90
14517;DHT22;7344;50.864;4.362;2022-11-15T16:31:01;12.70;99.90
14517;DHT22;7344;50.864;4.362;2022-11-15T16:33:27;12.70;99.90
14517;DHT22;7344;50.864;4.362;2022-11-15T16:35:52;12.70;99.90
14517;DHT22;7344;50.864;4.362;2022-11-15T16:38:18;12.70;99.90
14517;DHT22;7344;50.864;4.362;2022-11-15T16:40:44;12.70;99.90
14517;DHT22;7344;50.864;4.362;2022-11-15T16:43:10;12.80;99.90
14517;DHT22;7344;50.864;4.362;2022-11-15T16:45:35;12.80;99.90
14517;DHT22;7344;50.864;4.362;2022-11-15T16:48:01;12.80;99.90
14517;DHT22;7344;50.864;4.362;2022-11-15T16:50:29;12.80;99.90
14517;DHT22;7344;50.864;4.362;2022-11-15T16:52:56;12.80;99.90
14517;DHT22;7344;50.864;4.362;2022-11-15T16:55:24;12.80;99.90
14517;DHT22;7344;50.864;4.362;2022-11-15T16:57:51;12.80;99.90
14517;DHT22;7344;50.864;4.362;2022-11-15T17:00:18;12.80;99.90
14517;DHT22;7344;50.864;4.362;2022-11-15T17:02:45;12.80;99.90
14517;DHT22;7344;50.864;4.362;2022-11-15T17:05:12;12.80;99.90
14517;DHT22;7344;50.864;4.362;2022-11-15T17:07:38;12.80;99.90
14517;DHT22;7344;50.864;4.362;2022-11-15T17:10:05;12.80;99.90
14517;DHT22;7344;50.864;4.362;2022-11-15T17:12:32;12.80;99.90
14517;DHT22;7344;50.864;4.362;2022-11-15T17:14:58;12.70;99.90
14517;DHT22;7344;50.864;4.362;2022-11-15T17:17:24;12.80;99.90
14517;DHT22;7344;50.864;4.362;2022-11-15T17:19:51;12.80;99.90
14517;DHT22;7344;50.864;4.362;2022-11-15T17:22:26;12.80;99.90
14517;DHT22;7344;50.864;4.362;2022-11-15T17:24:52;12.80;99.90
14517;DHT22;7344;50.864;4.362;2022-11-15T17:27:17;12.80;99.90
14517;DHT22;7344;50.864;4.362;2022-11-15T17:29:43;12.80;99.90
14517;DHT22;7344;50.864;4.362;2022-11-15T17:32:09;12.80;99.90
14517;DHT22;7344;50.864;4.362;2022-11-15T17:34:34;12.80;99.90
14517;DHT22;7344;50.864;4.362;2022-11-15T17:37:00;12.80;99.90
14517;DHT22;7344;50.864;4.362;2022-11-15T17:39:25;12.80;99.90
14517;DHT22;7344;50.864;4.362;2022-11-15T17:41:51;12.70;99.90
14517;DHT22;7344;50.864;4.362;2022-11-15T17:44:17;12.70;99.90
14517;DHT22;7344;50.864;4.362;2022-11-15T17:46:43;12.70;99.90
14517;DHT22;7344;50.864;4.362;2022-11-15T17:49:09;12.70;99.90
14517;DHT22;7344;50.864;4.362;2022-11-15T17:51:34;12.70;99.90
14517;DHT22;7344;50.864;4.362;2022-11-15T17:54:00;12.80;99.90
14517;DHT22;7344;50.864;4.362;2022-11-15T17:56:27;12.80;99.90
14517;DHT22;7344;50.864;4.362;2022-11-15T17:58:58;12.80;99.90
14517;DHT22;7344;50.864;4.362;2022-11-15T18:01:25;12.80;99.90
14517;DHT22;7344;50.864;4.362;2022-11-15T18:03:52;12.80;99.90
14517;DHT22;7344;50.864;4.362;2022-11-15T18:06:19;12.80;99.90
14517;DHT22;7344;50.864;4.362;2022-11-15T18:08:47;12.80;99.90
14517;DHT22;7344;50.864;4.362;2022-11-15T18:11:17;12.80;99.90
14517;DHT22;7344;50.864;4.362;2022-11-15T18:13:45;12.80;99.90
14517;DHT22;7344;50.864;4.362;2022-11-15T18:16:14;12.80;99.90
14517;DHT22;7344;50.864;4.362;2022-11-15T18:18:41;12.80;99.90
14517;DHT22;7344;50.864;4.362;2022-11-15T18:21:14;12.80;99.90
14517;DHT22;7344;50.864;4.362;2022-11-15T18:23:41;12.80;99.90
14517;DHT22;7344;50.864;4.362;2022-11-15T18:26:10;12.90;99.90
14517;DHT22;7344;50.864;4.362;2022-11-15T18:28:38;12.80;99.90
14517;DHT22;7344;50.864;4.362;2022-11-15T18:31:12;12.90;99.90
14517;DHT22;7344;50.864;4.362;2022-11-15T18:33:38;12.90;99.90
14517;DHT22;7344;50.864;4.362;2022-11-15T18:36:06;12.80;99.90
14517;DHT22;7344;50.864;4.362;2022-11-15T18:38:32;12.90;99.90